Time;durP1;ratioP1;P1;durP2;ratioP2;P2;SDS_P1;SDS_P2;PMS_P1;PMS_P2;Temp;Humidity;BMP_temperature;BMP_pressure;BME280_temperature;BME280_humidity;BME280_pressure;Samples;Min_cycle;Max_cycle;Signal;HPM_P1;HPM_P2
2021/03/01 00:01:11;;;;;;;13.32;8.00;;;0.30;99.90;;;;;;5070433;28;20232;-72
2021/03/01 00:03:38;;;;;;;12.00;8.00;;;0.30;99.90;;;;;;5070217;28;20252;-72
2021/03/01 00:06:05;;;;;;;10.07;7.65;;;0.30;99.90;;;;;;5070556;28;20205;-72
2021/03/01 00:08:31;;;;;;;14.75;8.68;;;0.30;99.90;;;;;;5069956;28;20211;-70
2021/03/01 00:10:58;;;;;;;11.07;7.95;;;0.20;99.90;;;;;;5070335;28;20227;-72
2021/03/01 00:13:25;;;;;;;12.93;8.43;;;0.20;99.90;;;;;;5070669;28;20687;-72
2021/03/01 00:15:52;;;;;;;10.18;7.35;;;0.20;99.90;;;;;;5070934;28;20258;-72
2021/03/01 00:18:19;;;;;;;9.77;7.32;;;0.20;99.90;;;;;;5071441;28;20573;-71
2021/03/01 00:20:45;;;;;;;13.07;8.80;;;0.20;99.90;;;;;;5070157;28;20234;-70
2021/03/01 00:23:12;;;;;;;11.15;7.82;;;0.20;99.90;;;;;;5070513;28;20220;-71
2021/03/01 00:25:40;;;;;;;11.88;8.23;;;0.20;99.90;;;;;;5070178;28;20200;-72
2021/03/01 00:28:06;;;;;;;13.32;8.48;;;0.20;99.90;;;;;;5070584;28;20200;-71
2021/03/01 00:30:32;;;;;;;10.85;7.78;;;0.20;99.90;;;;;;5069575;28;20294;-71
2021/03/01 00:32:58;;;;;;;11.05;8.05;;;0.10;99.90;;;;;;5070664;28;20193;-72
2021/03/01 00:35:25;;;;;;;12.50;7.30;;;0.10;99.90;;;;;;5048302;28;20201;-71
2021/03/01 00:37:51;;;;;;;10.77;7.57;;;0.10;99.90;;;;;;5048009;28;20198;-71
2021/03/01 00:40:18;;;;;;;10.52;7.88;;;0.10;99.90;;;;;;5047199;28;20228;-70
2021/03/01 00:42:44;;;;;;;13.68;8.90;;;0.10;99.90;;;;;;5049524;28;20198;-72
2021/03/01 00:45:11;;;;;;;11.38;8.02;;;0.00;99.90;;;;;;5050307;28;20267;-71
2021/03/01 00:47:38;;;;;;;11.00;8.73;;;0.10;99.90;;;;;;5050075;28;20208;-72
2021/03/01 00:50:05;;;;;;;9.70;7.00;;;0.00;99.90;;;;;;5049525;28;20217;-72
2021/03/01 00:52:31;;;;;;;11.02;8.13;;;0.00;99.90;;;;;;5049942;28;20634;-72
2021/03/01 00:54:57;;;;;;;10.40;7.40;;;0.00;99.90;;;;;;5057644;28;20572;-71
2021/03/01 00:57:24;;;;;;;10.85;7.82;;;0.00;99.90;;;;;;5069811;28;20204;-71
2021/03/01 00:59:51;;;;;;;11.63;8.27;;;-0.10;99.90;;;;;;5069670;28;20587;-72
2021/03/01 01:02:17;;;;;;;11.32;7.53;;;-0.20;99.90;;;;;;5069598;28;20211;-71
2021/03/01 01:04:44;;;;;;;8.63;7.18;;;-0.20;99.90;;;;;;5069786;28;20220;-71
2021/03/01 01:07:10;;;;;;;11.25;8.63;;;-0.20;99.90;;;;;;5069749;28;20208;-73
2021/03/01 01:09:36;;;;;;;9.55;7.00;;;-0.10;99.90;;;;;;5068957;28;20220;-71
2021/03/01 01:12:02;;;;;;;10.30;7.30;;;-0.20;99.90;;;;;;5069859;28;20577;-72
2021/03/01 01:14:30;;;;;;;9.15;7.10;;;-0.20;99.90;;;;;;5069490;28;20200;-72
2021/03/01 01:16:56;;;;;;;12.35;8.35;;;-0.20;99.90;;;;;;5069766;28;20204;-72
2021/03/01 01:19:22;;;;;;;11.70;7.95;;;-0.30;99.90;;;;;;5068789;28;20201;-72
2021/03/01 01:21:49;;;;;;;12.45;8.10;;;-0.30;99.90;;;;;;5069597;28;20200;-72
2021/03/01 01:24:15;;;;;;;10.52;7.40;;;-0.30;99.90;;;;;;5069392;28;20224;-72
2021/03/01 01:26:41;;;;;;;11.45;7.45;;;-0.40;99.90;;;;;;5069615;28;20215;-72
2021/03/01 01:29:07;;;;;;;12.57;8.05;;;-0.40;99.90;;;;;;5069041;28;20227;-72
2021/03/01 01:31:34;;;;;;;11.60;7.88;;;-0.40;99.90;;;;;;5069283;28;20588;-72
2021/03/01 01:34:01;;;;;;;11.07;7.30;;;-0.40;99.90;;;;;;5067410;28;20196;-72
2021/03/01 01:36:27;;;;;;;11.15;7.60;;;-0.40;99.90;;;;;;5066875;28;20200;-72
2021/03/01 01:38:53;;;;;;;10.98;7.00;;;-0.40;99.90;;;;;;5066341;28;20209;-70
2021/03/01 01:41:20;;;;;;;9.30;7.43;;;-0.50;99.90;;;;;;5068590;28;20664;-72
2021/03/01 01:43:47;;;;;;;12.30;7.85;;;-0.50;99.90;;;;;;5069373;28;20277;-72
2021/03/01 01:46:14;;;;;;;10.95;8.18;;;-0.40;99.90;;;;;;5069213;28;20254;-72
2021/03/01 01:48:41;;;;;;;12.00;7.30;;;-0.50;99.90;;;;;;5068710;28;20227;-72
2021/03/01 01:51:07;;;;;;;13.00;7.97;;;-0.50;99.90;;;;;;5068970;28;20599;-72
2021/03/01 01:53:34;;;;;;;8.52;6.25;;;-0.60;99.90;;;;;;5068962;28;20197;-72
2021/03/01 01:56:01;;;;;;;12.05;7.57;;;-0.60;99.90;;;;;;5069115;28;20207;-72
2021/03/01 01:58:27;;;;;;;11.57;7.50;;;-0.60;99.90;;;;;;5068556;28;20212;-72
2021/03/01 02:00:54;;;;;;;9.88;7.07;;;-0.60;99.90;;;;;;5082045;22;20235;-70
2021/03/01 02:03:32;;;;;;;15.50;7.97;;;-0.60;99.90;;;;;;5069043;28;20217;-70
2021/03/01 02:06:03;;;;;;;11.50;7.25;;;-0.60;99.90;;;;;;5069218;28;20211;-71
2021/03/01 02:08:37;;;;;;;10.77;6.72;;;-0.60;99.90;;;;;;5068555;28;20204;-71
2021/03/01 02:11:09;;;;;;;14.23;7.60;;;-0.60;99.90;;;;;;5053715;28;20225;-71
2021/03/01 02:13:40;;;;;;;11.23;6.85;;;-0.60;99.90;;;;;;5048592;28;20197;-70
2021/03/01 02:16:10;;;;;;;11.05;6.93;;;-0.60;99.90;;;;;;5049078;28;20201;-71
2021/03/01 02:18:37;;;;;;;10.15;6.75;;;-0.60;99.90;;;;;;5048126;28;20212;-71
2021/03/01 02:21:08;;;;;;;15.85;8.60;;;-0.70;99.90;;;;;;5048908;28;20597;-70
2021/03/01 02:23:35;;;;;;;11.32;7.32;;;-0.70;99.90;;;;;;5048511;28;20719;-69
2021/03/01 02:26:03;;;;;;;9.45;6.78;;;-0.70;99.90;;;;;;5048980;28;20212;-70
2021/03/01 02:28:33;;;;;;;12.18;6.93;;;-0.70;99.90;;;;;;5048533;28;20209;-71
2021/03/01 02:31:03;;;;;;;11.07;7.68;;;-0.70;99.90;;;;;;5048690;28;20221;-70
2021/03/01 02:33:36;;;;;;;10.88;7.20;;;-0.70;99.90;;;;;;5048393;28;20201;-70
2021/03/01 02:36:06;;;;;;;10.55;6.95;;;-0.70;99.90;;;;;;5048800;28;20649;-69
2021/03/01 02:38:35;;;;;;;7.93;6.90;;;-0.70;99.90;;;;;;5048671;28;20213;-69
2021/03/01 02:41:02;;;;;;;9.02;6.45;;;-0.70;99.90;;;;;;5048708;28;20224;-70
2021/03/01 02:43:30;;;;;;;10.30;7.00;;;-0.70;99.90;;;;;;5048562;28;20239;-71
2021/03/01 02:45:58;;;;;;;9.73;6.90;;;-0.80;99.90;;;;;;5048723;28;20644;-70
2021/03/01 02:48:26;;;;;;;11.80;6.57;;;-0.80;99.90;;;;;;5048556;28;20603;-71
2021/03/01 02:50:54;;;;;;;10.18;7.07;;;-0.80;99.90;;;;;;5048208;28;20232;-71
2021/03/01 02:53:21;;;;;;;10.00;6.72;;;-0.80;99.90;;;;;;5049098;28;20205;-70
2021/03/01 02:55:50;;;;;;;11.27;7.25;;;-0.80;99.90;;;;;;5048639;28;20224;-69
2021/03/01 02:58:18;;;;;;;12.25;6.97;;;-0.80;99.90;;;;;;5048815;28;20201;-70
2021/03/01 03:00:46;;;;;;;10.48;7.00;;;-0.80;99.90;;;;;;5047774;28;20240;-70
2021/03/01 03:03:13;;;;;;;9.90;6.45;;;-0.80;99.90;;;;;;5048441;28;20257;-70
2021/03/01 03:05:41;;;;;;;10.95;7.97;;;-0.80;99.90;;;;;;5048079;28;20205;-70
2021/03/01 03:08:08;;;;;;;12.38;6.90;;;-0.80;99.90;;;;;;5048608;28;20202;-69
2021/03/01 03:10:35;;;;;;;12.13;7.82;;;-0.80;99.90;;;;;;5047922;28;20221;-69
2021/03/01 03:13:04;;;;;;;12.68;7.78;;;-0.90;99.90;;;;;;5051980;28;20235;-70
2021/03/01 03:15:31;;;;;;;11.27;8.40;;;-0.80;99.90;;;;;;5051807;28;20197;-69
2021/03/01 03:17:59;;;;;;;12.65;8.20;;;-0.80;99.90;;;;;;5051917;28;20258;-71
2021/03/01 03:20:25;;;;;;;11.13;6.57;;;-0.90;99.90;;;;;;5051055;28;20221;-70
2021/03/01 03:22:52;;;;;;;14.95;7.18;;;-0.90;99.90;;;;;;5051891;28;20201;-70
2021/03/01 03:25:18;;;;;;;13.60;9.00;;;-0.90;99.90;;;;;;5052171;28;20212;-69
2021/03/01 03:27:45;;;;;;;16.90;8.02;;;-0.90;99.90;;;;;;5051484;28;20703;-71
2021/03/01 03:30:14;;;;;;;10.82;7.90;;;-0.90;99.90;;;;;;5051372;28;20275;-70
2021/03/01 03:32:41;;;;;;;14.63;8.38;;;-1.00;99.90;;;;;;5051452;28;20216;-70
2021/03/01 03:35:10;;;;;;;10.88;7.25;;;-1.00;99.90;;;;;;5051660;28;20198;-71
2021/03/01 03:37:41;;;;;;;15.38;7.75;;;-1.00;99.90;;;;;;5051575;28;20581;-70
2021/03/01 03:40:11;;;;;;;12.82;8.48;;;-1.00;99.90;;;;;;5051045;28;20220;-70
2021/03/01 03:42:37;;;;;;;10.77;8.18;;;-1.10;99.90;;;;;;5051343;28;20247;-70
2021/03/01 03:45:06;;;;;;;11.15;7.50;;;-1.10;99.90;;;;;;5046200;28;20226;-70
2021/03/01 03:47:35;;;;;;;11.32;7.97;;;-1.10;99.90;;;;;;5029272;28;20283;-70
2021/03/01 03:50:04;;;;;;;9.98;6.60;;;-1.10;99.90;;;;;;5028659;28;20221;-70
2021/03/01 03:52:32;;;;;;;11.13;7.15;;;-1.10;99.90;;;;;;5031468;28;20560;-70
2021/03/01 03:55:00;;;;;;;9.75;7.68;;;-1.10;99.90;;;;;;5030694;28;20739;-71
2021/03/01 03:57:30;;;;;;;12.90;7.95;;;-1.10;99.90;;;;;;5031172;28;20205;-71
2021/03/01 03:59:58;;;;;;;13.13;7.75;;;-1.10;99.90;;;;;;5030697;28;20237;-70
2021/03/01 04:02:26;;;;;;;10.23;7.82;;;-1.10;99.90;;;;;;5031682;28;20275;-71
2021/03/01 04:04:53;;;;;;;8.98;7.25;;;-1.10;99.90;;;;;;5031764;28;20629;-71
2021/03/01 04:07:22;;;;;;;12.60;7.70;;;-1.10;99.90;;;;;;5031126;28;20711;-71
2021/03/01 04:09:49;;;;;;;10.45;7.55;;;-1.20;99.90;;;;;;5030474;28;20230;-71
2021/03/01 04:12:17;;;;;;;11.02;7.70;;;-1.20;99.90;;;;;;5030925;28;20602;-71
2021/03/01 04:14:49;;;;;;;11.73;7.97;;;-1.20;99.90;;;;;;5030746;28;20205;-71
2021/03/01 04:17:17;;;;;;;9.23;6.97;;;-1.10;99.90;;;;;;5031145;28;20210;-71
2021/03/01 04:19:45;;;;;;;10.48;7.22;;;-1.20;99.90;;;;;;5030214;28;20226;-70
2021/03/01 04:22:15;;;;;;;11.18;8.00;;;-1.10;99.90;;;;;;5030324;28;20215;-70
2021/03/01 04:24:42;;;;;;;13.63;8.77;;;-1.10;99.90;;;;;;5030644;28;20245;-71
2021/03/01 04:27:09;;;;;;;11.23;7.85;;;-1.20;99.90;;;;;;5032854;28;20206;-72
2021/03/01 04:29:36;;;;;;;11.75;8.00;;;-1.20;99.90;;;;;;5031080;28;20222;-72
2021/03/01 04:32:02;;;;;;;12.77;7.82;;;-1.20;99.90;;;;;;5030672;28;20633;-71
2021/03/01 04:34:29;;;;;;;11.98;8.10;;;-1.20;99.90;;;;;;5030907;28;20737;-71
2021/03/01 04:36:56;;;;;;;13.73;8.40;;;-1.20;99.90;;;;;;5030679;28;20201;-72
2021/03/01 04:39:24;;;;;;;14.95;8.43;;;-1.20;99.90;;;;;;5029611;28;20688;-71
2021/03/01 04:41:51;;;;;;;10.75;8.02;;;-1.20;99.90;;;;;;5030501;28;20210;-71
2021/03/01 04:44:18;;;;;;;12.77;8.40;;;-1.20;99.90;;;;;;5030404;28;20218;-72
2021/03/01 04:46:47;;;;;;;16.75;8.27;;;-1.20;99.90;;;;;;5030194;28;20205;-72
2021/03/01 04:49:14;;;;;;;13.27;8.45;;;-1.20;99.90;;;;;;5029615;28;20299;-71
2021/03/01 04:51:41;;;;;;;12.18;8.13;;;-1.20;99.90;;;;;;5030001;28;20210;-71
2021/03/01 04:54:09;;;;;;;12.82;7.68;;;-1.30;99.90;;;;;;5030292;28;20198;-71
2021/03/01 04:56:40;;;;;;;14.38;7.68;;;-1.30;99.90;;;;;;5030227;28;20206;-70
2021/03/01 04:59:08;;;;;;;14.18;7.70;;;-1.30;99.90;;;;;;5029914;28;20202;-71
2021/03/01 05:01:34;;;;;;;10.10;7.38;;;-1.30;99.90;;;;;;5030158;28;20233;-71
2021/03/01 05:04:01;;;;;;;10.95;8.23;;;-1.30;99.90;;;;;;5030542;28;20259;-72
2021/03/01 05:06:28;;;;;;;11.05;8.60;;;-1.30;99.90;;;;;;5029899;28;20206;-72
2021/03/01 05:08:55;;;;;;;10.48;7.40;;;-1.30;99.90;;;;;;5029527;28;20222;-72
2021/03/01 05:11:30;;;;;;;13.48;8.82;;;-1.40;99.90;;;;;;5029973;28;20775;-70
2021/03/01 05:13:58;;;;;;;12.45;8.52;;;-1.40;99.90;;;;;;5030181;28;20635;-70
2021/03/01 05:16:25;;;;;;;16.42;8.90;;;-1.40;99.90;;;;;;5029690;28;20234;-71
2021/03/01 05:18:51;;;;;;;12.65;7.53;;;-1.40;99.90;;;;;;5029362;28;20221;-71
2021/03/01 05:21:17;;;;;;;10.98;7.32;;;-1.40;99.90;;;;;;5029743;28;20489;-70
2021/03/01 05:23:44;;;;;;;13.00;7.90;;;-1.40;99.90;;;;;;5029721;28;20304;-70
2021/03/01 05:26:10;;;;;;;11.75;7.80;;;-1.40;99.90;;;;;;5029671;28;20202;-69
2021/03/01 05:28:37;;;;;;;11.43;8.20;;;-1.50;99.90;;;;;;5029221;28;20205;-69
2021/03/01 05:31:04;;;;;;;10.75;8.15;;;-1.40;99.90;;;;;;5037054;28;20240;-70
2021/03/01 05:33:31;;;;;;;13.85;7.90;;;-1.50;99.90;;;;;;5050994;28;20619;-69
2021/03/01 05:35:57;;;;;;;10.15;8.27;;;-1.50;99.90;;;;;;5051475;28;20194;-70
2021/03/01 05:38:23;;;;;;;11.90;9.07;;;-1.50;99.90;;;;;;5029499;28;20206;-71
2021/03/01 05:40:49;;;;;;;15.88;9.65;;;-1.50;99.90;;;;;;5029077;28;20280;-70
2021/03/01 05:43:18;;;;;;;13.70;8.15;;;-1.40;99.90;;;;;;5029335;28;20201;-71
2021/03/01 05:45:45;;;;;;;11.25;8.30;;;-1.40;99.90;;;;;;5029574;28;20625;-71
2021/03/01 05:48:14;;;;;;;11.80;7.63;;;-1.40;99.90;;;;;;5029250;28;20202;-71
2021/03/01 05:50:42;;;;;;;13.98;8.40;;;-1.50;99.90;;;;;;5028476;28;20221;-71
2021/03/01 05:53:12;;;;;;;10.60;7.45;;;-1.50;99.90;;;;;;5029482;28;20209;-70
2021/03/01 05:55:39;;;;;;;15.30;8.30;;;-1.50;99.90;;;;;;5029366;28;20205;-71
2021/03/01 05:58:08;;;;;;;12.13;8.00;;;-1.50;99.90;;;;;;5029712;28;20210;-70
2021/03/01 06:00:34;;;;;;;12.45;8.40;;;-1.50;99.90;;;;;;5028365;28;20244;-70
2021/03/01 06:03:01;;;;;;;13.27;8.07;;;-1.40;99.90;;;;;;5029576;28;20208;-70
2021/03/01 06:05:29;;;;;;;11.15;7.85;;;-1.50;99.90;;;;;;5029326;28;20221;-70
2021/03/01 06:07:56;;;;;;;11.40;8.50;;;-1.50;99.90;;;;;;5029720;28;20293;-70
2021/03/01 06:10:22;;;;;;;10.68;7.97;;;-1.50;99.90;;;;;;5028451;28;20252;-69
2021/03/01 06:12:48;;;;;;;11.35;7.22;;;-1.50;99.90;;;;;;5029376;28;20210;-70
2021/03/01 06:15:15;;;;;;;11.82;8.02;;;-1.50;99.90;;;;;;5029508;28;20293;-70
2021/03/01 06:17:42;;;;;;;10.65;7.43;;;-1.50;99.90;;;;;;5029321;28;20899;-69
2021/03/01 06:20:10;;;;;;;12.55;8.18;;;-1.50;99.90;;;;;;5028882;28;20624;-70
2021/03/01 06:22:42;;;;;;;11.15;7.32;;;-1.50;99.90;;;;;;5028925;28;20579;-71
2021/03/01 06:25:11;;;;;;;13.18;8.57;;;-1.40;99.90;;;;;;5027740;28;20225;-71
2021/03/01 06:27:50;;;;;;;12.32;7.95;;;-1.40;99.90;;;;;;5027961;28;20696;-71
2021/03/01 06:30:18;;;;;;;16.08;9.60;;;-1.40;99.90;;;;;;5027974;28;20588;-71
2021/03/01 06:33:01;;;;;;;12.93;8.48;;;-1.40;99.90;;;;;;5026549;28;20205;-70
2021/03/01 06:35:30;;;;;;;13.15;7.65;;;-1.30;99.90;;;;;;5028975;28;20209;-70
2021/03/01 06:38:25;;;;;;;14.05;8.48;;;-1.30;99.90;;;;;;5028132;28;20620;-71
2021/03/01 06:41:13;;;;;;;10.90;7.60;;;-1.30;99.90;;;;;;5028226;28;20229;-71
2021/03/01 06:43:41;;;;;;;11.70;7.70;;;-1.20;99.90;;;;;;5028414;28;20232;-69
2021/03/01 06:46:08;;;;;;;14.13;9.73;;;-1.20;99.90;;;;;;5031756;28;20216;-70
2021/03/01 06:48:35;;;;;;;16.25;7.93;;;-1.20;99.90;;;;;;5031607;28;20205;-69
2021/03/01 06:51:01;;;;;;;10.98;7.68;;;-1.20;99.90;;;;;;5032350;28;20222;-71
2021/03/01 06:53:28;;;;;;;14.48;8.43;;;-1.10;99.90;;;;;;5032710;28;20205;-71
2021/03/01 06:56:00;;;;;;;14.05;9.88;;;-1.00;99.90;;;;;;5032860;28;20437;-71
2021/03/01 06:58:28;;;;;;;13.65;9.23;;;-1.00;99.90;;;;;;5032631;28;20577;-72
2021/03/01 07:01:03;;;;;;;16.35;10.18;;;-0.90;99.90;;;;;;5031501;28;20225;-71
2021/03/01 07:03:30;;;;;;;17.05;8.90;;;-0.80;99.90;;;;;;5032370;28;20209;-70
2021/03/01 07:05:58;;;;;;;14.82;8.82;;;-0.80;99.90;;;;;;5033133;28;20202;-71
2021/03/01 07:08:46;;;;;;;16.15;9.70;;;-0.70;99.90;;;;;;5032560;28;20225;-70
2021/03/01 07:11:29;;;;;;;14.38;7.97;;;-0.60;99.90;;;;;;5032233;28;20264;-71
2021/03/01 07:13:58;;;;;;;12.48;8.63;;;-0.50;99.90;;;;;;5032473;28;20202;-70
2021/03/01 07:16:24;;;;;;;9.48;7.60;;;-0.40;99.90;;;;;;5032030;28;20201;-71
2021/03/01 07:18:51;;;;;;;12.77;9.05;;;0.10;99.90;;;;;;5031857;28;20208;-70
2021/03/01 07:21:18;;;;;;;12.02;7.90;;;1.00;99.90;;;;;;5032308;28;20295;-71
2021/03/01 07:23:47;;;;;;;11.88;8.00;;;2.10;99.90;;;;;;5032246;28;20229;-71
2021/03/01 07:26:15;;;;;;;12.10;7.55;;;3.30;99.90;;;;;;5031928;28;20210;-70
2021/03/01 07:28:44;;;;;;;10.20;8.00;;;4.50;99.90;;;;;;5031485;28;20582;-70
2021/03/01 07:31:12;;;;;;;9.48;6.93;;;5.70;99.90;;;;;;5032170;28;20225;-71
2021/03/01 07:33:38;;;;;;;11.95;7.50;;;6.70;99.90;;;;;;5031835;28;20229;-70
2021/03/01 07:36:07;;;;;;;9.93;7.63;;;7.60;99.10;;;;;;5032033;28;20221;-70
2021/03/01 07:38:34;;;;;;;10.80;7.57;;;8.40;97.50;;;;;;5031255;28;20198;-70
2021/03/01 07:41:02;;;;;;;11.45;7.45;;;9.00;96.50;;;;;;5048803;28;20225;-71
2021/03/01 07:43:29;;;;;;;9.07;7.40;;;9.50;95.30;;;;;;5051562;28;20323;-70
2021/03/01 07:45:56;;;;;;;10.00;8.07;;;10.00;94.10;;;;;;5051873;28;20197;-71
2021/03/01 07:48:23;;;;;;;8.18;7.35;;;10.70;93.10;;;;;;5051157;28;20209;-70
2021/03/01 07:50:49;;;;;;;9.02;7.05;;;11.10;92.10;;;;;;5050412;28;20797;-70
2021/03/01 07:53:48;;;;;;;9.25;7.75;;;11.60;91.10;;;;;;5051084;28;20197;-71
2021/03/01 07:56:52;;;;;;;10.30;8.55;;;12.00;89.60;;;;;;5050405;28;20300;-71
2021/03/01 07:59:28;;;;;;;8.32;7.43;;;12.50;87.60;;;;;;5042969;28;20198;-69
2021/03/01 08:02:26;;;;;;;9.95;7.78;;;12.90;87.20;;;;;;5063915;22;20228;-71
2021/03/01 08:04:54;;;;;;;10.50;8.85;;;13.20;85.70;;;;;;5069237;28;20223;-71
2021/03/01 08:07:40;;;;;;;8.35;7.50;;;13.30;86.20;;;;;;5069282;28;20196;-71
2021/03/01 08:10:09;;;;;;;9.57;8.15;;;13.50;85.80;;;;;;5061022;28;20220;-71
2021/03/01 08:12:56;;;;;;;8.57;7.37;;;13.70;84.20;;;;;;5064153;28;20228;-72
2021/03/01 08:15:26;;;;;;;10.00;7.87;;;14.00;83.20;;;;;;5068271;28;20828;-71
2021/03/01 08:17:52;;;;;;;9.00;7.67;;;14.00;82.70;;;;;;5068269;28;20455;-71
2021/03/01 08:20:57;;;;;;;12.63;8.13;;;13.90;82.00;;;;;;5068582;28;20640;-71
2021/03/01 08:23:44;;;;;;;9.97;6.83;;;14.30;81.40;;;;;;5063781;28;20992;-71
2021/03/01 08:26:10;;;;;;;7.93;7.13;;;15.10;79.10;;;;;;5050664;28;20505;-71
2021/03/01 08:29:02;;;;;;;7.87;7.07;;;15.60;76.50;;;;;;5049335;28;20460;-71
2021/03/01 08:31:40;;;;;;;10.90;7.67;;;16.10;76.20;;;;;;5050303;28;20483;-71
2021/03/01 08:34:43;;;;;;;8.40;7.20;;;16.20;73.70;;;;;;5048991;28;20460;-71
2021/03/01 08:37:09;;;;;;;7.27;6.57;;;16.00;73.50;;;;;;5049681;28;20855;-71
2021/03/01 08:39:58;;;;;;;8.90;6.80;;;15.70;73.50;;;;;;5049229;28;20490;-71
2021/03/01 08:42:54;;;;;;;7.30;6.60;;;16.00;74.70;;;;;;5049941;28;20819;-71
2021/03/01 08:45:30;;;;;;;7.87;6.23;;;17.00;72.50;;;;;;5049672;28;20486;-71
2021/03/01 08:47:58;;;;;;;10.77;7.03;;;18.20;69.60;;;;;;5048872;28;20946;-71
2021/03/01 08:50:27;;;;;;;8.60;6.80;;;18.60;67.70;;;;;;5049100;28;20487;-71
2021/03/01 08:52:54;;;;;;;8.80;7.40;;;18.60;66.50;;;;;;5048831;28;21076;-71
2021/03/01 08:55:21;;;;;;;7.43;6.53;;;17.90;66.80;;;;;;5049306;28;20463;-71
2021/03/01 08:58:07;;;;;;;7.23;6.50;;;17.80;66.80;;;;;;5049219;28;20467;-71
2021/03/01 09:00:36;;;;;;;7.07;6.37;;;17.90;67.00;;;;;;5048083;28;20478;-71
2021/03/01 09:03:23;;;;;;;7.07;6.37;;;18.40;66.60;;;;;;5048529;28;20479;-71
2021/03/01 09:05:51;;;;;;;8.90;6.20;;;19.00;64.20;;;;;;5049115;28;20451;-71
2021/03/01 09:08:30;;;;;;;7.00;6.30;;;19.40;65.00;;;;;;5048495;28;20533;-71
2021/03/01 09:11:00;;;;;;;7.50;6.47;;;20.30;62.80;;;;;;5048336;28;20471;-72
2021/03/01 09:13:27;;;;;;;6.17;5.53;;;20.00;62.50;;;;;;5048679;28;20495;-71
2021/03/01 09:15:54;;;;;;;6.63;6.03;;;20.00;62.50;;;;;;5048839;28;20455;-71
2021/03/01 09:18:21;;;;;;;6.43;5.83;;;20.50;61.00;;;;;;5049041;28;20800;-72
2021/03/01 09:20:52;;;;;;;8.43;6.03;;;20.60;61.60;;;;;;5048092;28;20483;-72
2021/03/01 09:23:35;;;;;;;7.13;6.43;;;20.60;61.20;;;;;;5048956;28;20455;-71
2021/03/01 09:26:02;;;;;;;8.40;6.20;;;20.90;61.20;;;;;;5048690;28;20462;-71
2021/03/01 09:28:30;;;;;;;6.63;6.03;;;21.10;58.50;;;;;;5048342;28;20456;-71
2021/03/01 09:31:09;;;;;;;6.73;6.03;;;21.20;58.50;;;;;;5047906;28;20844;-72
2021/03/01 09:33:35;;;;;;;8.50;6.77;;;20.80;60.10;;;;;;5048600;28;20509;-71
2021/03/01 09:36:02;;;;;;;6.60;5.93;;;20.90;59.50;;;;;;5048749;28;20463;-70
2021/03/01 09:38:29;;;;;;;7.50;6.80;;;21.50;58.40;;;;;;5068268;28;20450;-71
2021/03/01 09:40:57;;;;;;;7.70;6.70;;;21.70;58.90;;;;;;5067865;28;20482;-70
2021/03/01 09:43:23;;;;;;;8.07;7.03;;;21.90;59.20;;;;;;5068476;28;20972;-71
2021/03/01 09:45:51;;;;;;;6.40;5.80;;;22.50;57.70;;;;;;5068606;28;20494;-71
2021/03/01 09:48:18;;;;;;;7.33;6.50;;;22.70;57.20;;;;;;5067788;28;20756;-71
2021/03/01 09:50:45;;;;;;;7.00;6.40;;;22.40;57.40;;;;;;5067676;28;20532;-71
2021/03/01 09:53:14;;;;;;;8.60;6.33;;;22.10;57.50;;;;;;5068136;28;20461;-70
2021/03/01 09:55:40;;;;;;;8.47;6.50;;;21.90;57.00;;;;;;5068076;28;20693;-71
2021/03/01 09:58:24;;;;;;;9.40;6.53;;;22.10;57.50;;;;;;5067909;28;20553;-70
2021/03/01 10:00:51;;;;;;;7.47;6.70;;;22.20;57.00;;;;;;5066810;28;20842;-71
2021/03/01 10:03:18;;;;;;;7.73;6.07;;;22.00;55.10;;;;;;5068089;28;20485;-70
2021/03/01 10:05:48;;;;;;;7.10;6.43;;;21.80;57.10;;;;;;5068212;28;20489;-74
2021/03/01 10:08:20;;;;;;;6.63;5.93;;;22.00;55.20;;;;;;5067859;28;20929;-71
2021/03/01 10:10:47;;;;;;;7.80;7.00;;;21.60;56.50;;;;;;5067735;28;20486;-71
2021/03/01 10:13:25;;;;;;;7.80;6.00;;;21.60;57.50;;;;;;5067581;28;20458;-71
2021/03/01 10:15:51;;;;;;;7.10;6.30;;;22.50;56.50;;;;;;5068561;28;20588;-71
2021/03/01 10:18:20;;;;;;;7.27;6.57;;;23.20;55.30;;;;;;5067812;28;21023;-72
2021/03/01 10:20:48;;;;;;;6.20;5.33;;;23.30;54.50;;;;;;5070156;28;20571;-70
2021/03/01 10:23:26;;;;;;;6.40;5.70;;;23.60;53.60;;;;;;5072063;28;20454;-71
2021/03/01 10:26:14;;;;;;;6.53;5.93;;;23.50;52.90;;;;;;5071276;28;20482;-71
2021/03/01 10:28:41;;;;;;;7.43;6.57;;;23.20;53.20;;;;;;5071548;28;20527;-71
2021/03/01 10:31:09;;;;;;;7.33;6.63;;;23.20;53.90;;;;;;5071392;28;20482;-71
2021/03/01 10:33:50;;;;;;;7.17;6.47;;;22.60;51.80;;;;;;5069572;28;20458;-71
2021/03/01 10:36:16;;;;;;;6.33;5.73;;;22.60;53.10;;;;;;5071227;28;20462;-71
2021/03/01 10:38:50;;;;;;;6.10;5.50;;;22.70;53.20;;;;;;5071304;28;21039;-72
2021/03/01 10:41:18;;;;;;;6.27;5.73;;;22.60;53.00;;;;;;5072034;28;20482;-71
2021/03/01 10:43:56;;;;;;;8.27;5.90;;;22.70;52.90;;;;;;5072398;28;20961;-71
2021/03/01 10:46:36;;;;;;;7.00;5.93;;;23.10;53.00;;;;;;5072954;28;20466;-71
2021/03/01 10:49:13;;;;;;;7.20;5.67;;;24.10;52.60;;;;;;5070119;28;20553;-72
2021/03/01 10:51:39;;;;;;;6.67;6.07;;;24.30;50.90;;;;;;5072033;28;20462;-72
2021/03/01 10:54:06;;;;;;;5.50;4.90;;;24.60;50.70;;;;;;5071695;28;20549;-72
2021/03/01 10:56:32;;;;;;;8.03;6.37;;;24.70;50.30;;;;;;5071852;28;20468;-72
2021/03/01 10:58:59;;;;;;;6.13;5.57;;;24.80;50.70;;;;;;5071449;28;20458;-72
2021/03/01 11:01:34;;;;;;;5.97;5.47;;;24.90;51.20;;;;;;5071738;28;20498;-71
2021/03/01 11:04:01;;;;;;;6.30;5.50;;;24.90;49.80;;;;;;5069668;28;20543;-71
2021/03/01 11:06:28;;;;;;;6.57;5.87;;;25.00;50.00;;;;;;5072100;28;20565;-71
2021/03/01 11:08:55;;;;;;;6.03;5.43;;;25.20;48.70;;;;;;5071673;28;20464;-71
2021/03/01 11:11:21;;;;;;;6.70;5.40;;;25.50;48.50;;;;;;5071661;28;20506;-70
2021/03/01 11:13:48;;;;;;;6.13;5.30;;;25.40;49.30;;;;;;5070827;28;20458;-71
2021/03/01 11:16:14;;;;;;;5.50;5.00;;;25.00;47.70;;;;;;5070403;28;20451;-70
2021/03/01 11:18:41;;;;;;;6.30;5.70;;;25.20;50.00;;;;;;5069961;28;20511;-71
2021/03/01 11:21:08;;;;;;;6.03;5.43;;;25.40;48.50;;;;;;5070209;28;20561;-71
2021/03/01 11:23:35;;;;;;;6.03;5.27;;;24.40;47.90;;;;;;5070947;28;20465;-71
2021/03/01 11:26:01;;;;;;;5.50;4.90;;;24.00;47.40;;;;;;5070973;28;20580;-70
2021/03/01 11:28:27;;;;;;;5.63;5.13;;;24.30;49.10;;;;;;5070995;28;20484;-71
2021/03/01 11:30:54;;;;;;;8.50;5.20;;;24.40;47.50;;;;;;5069428;28;20988;-71
2021/03/01 11:33:21;;;;;;;6.27;5.00;;;24.30;47.40;;;;;;5070931;28;20545;-71
2021/03/01 11:35:48;;;;;;;5.33;4.83;;;24.40;47.70;;;;;;5071199;28;20546;-71
2021/03/01 11:38:15;;;;;;;4.70;4.30;;;25.00;48.80;;;;;;5071061;28;20469;-72
2021/03/01 11:40:42;;;;;;;5.03;4.53;;;25.70;47.20;;;;;;5067852;28;21056;-72
2021/03/01 11:43:08;;;;;;;5.20;4.80;;;25.50;45.20;;;;;;5066168;28;20469;-72
2021/03/01 11:45:34;;;;;;;6.00;5.40;;;25.00;45.40;;;;;;5066916;28;20479;-71
2021/03/01 11:48:01;;;;;;;4.70;4.23;;;24.50;45.80;;;;;;5068784;28;20458;-72
2021/03/01 11:50:28;;;;;;;5.10;4.67;;;24.60;46.10;;;;;;5066295;28;20479;-71
2021/03/01 11:52:54;;;;;;;4.70;4.30;;;24.70;45.50;;;;;;5060697;28;20462;-71
2021/03/01 11:55:21;;;;;;;4.60;4.20;;;24.80;45.70;;;;;;5066843;28;20903;-70
2021/03/01 11:57:48;;;;;;;4.43;4.03;;;24.80;45.00;;;;;;5067967;28;20455;-71
2021/03/01 12:00:17;;;;;;;5.77;4.30;;;24.90;44.90;;;;;;5065216;28;20485;-70
2021/03/01 12:02:43;;;;;;;4.70;4.27;;;24.60;43.90;;;;;;5068455;28;20469;-71
2021/03/01 12:05:11;;;;;;;4.90;4.50;;;24.60;44.70;;;;;;5067156;28;20489;-73
2021/03/01 12:07:37;;;;;;;7.37;4.70;;;24.90;44.20;;;;;;5067829;28;20461;-71
2021/03/01 12:10:04;;;;;;;4.23;3.83;;;25.00;44.80;;;;;;5063994;28;20482;-72
2021/03/01 12:12:30;;;;;;;4.90;4.40;;;25.40;44.60;;;;;;5068071;28;20476;-71
2021/03/01 12:14:57;;;;;;;5.10;4.70;;;25.40;44.00;;;;;;5067940;28;20462;-73
2021/03/01 12:17:24;;;;;;;7.47;5.10;;;25.40;44.20;;;;;;5069017;28;20837;-73
2021/03/01 12:19:50;;;;;;;4.57;4.17;;;25.60;43.60;;;;;;5056767;28;20483;-71
2021/03/01 12:22:16;;;;;;;4.33;3.80;;;25.40;44.80;;;;;;5065980;28;20458;-70
2021/03/01 12:24:43;;;;;;;4.50;4.10;;;25.50;43.60;;;;;;5067575;28;20487;-72
2021/03/01 12:27:09;;;;;;;4.73;4.30;;;25.20;45.20;;;;;;5067055;28;21021;-71
2021/03/01 12:29:35;;;;;;;4.60;4.20;;;24.90;44.90;;;;;;5066756;28;20479;-71
2021/03/01 12:32:02;;;;;;;4.50;3.77;;;25.50;44.50;;;;;;5065336;28;20458;-71
2021/03/01 12:34:28;;;;;;;4.43;4.07;;;25.60;44.50;;;;;;5066954;28;20473;-71
2021/03/01 12:36:55;;;;;;;4.47;3.50;;;25.40;44.80;;;;;;5068470;28;20462;-71
2021/03/01 12:39:21;;;;;;;3.57;3.27;;;25.10;44.30;;;;;;5067812;28;20462;-71
2021/03/01 12:41:47;;;;;;;4.60;3.20;;;25.20;45.10;;;;;;5065877;28;20474;-71
2021/03/01 12:44:14;;;;;;;4.00;3.67;;;25.40;44.10;;;;;;5067569;28;21427;-71
2021/03/01 12:46:40;;;;;;;4.93;4.50;;;25.00;44.40;;;;;;5068171;28;20501;-71
2021/03/01 12:49:07;;;;;;;4.23;3.70;;;25.00;44.70;;;;;;5067432;28;20840;-73
2021/03/01 12:51:33;;;;;;;4.10;3.70;;;24.70;44.50;;;;;;5066441;28;20842;-71
2021/03/01 12:53:59;;;;;;;4.50;4.10;;;24.80;46.20;;;;;;5067756;28;20466;-71